Time;durP1;ratioP1;P1;durP2;ratioP2;P2;SDS_P1;SDS_P2;PMS_P1;PMS_P2;Temp;Humidity;BMP_temperature;BMP_pressure;BME280_temperature;BME280_humidity;BME280_pressure;Samples;Min_cycle;Max_cycle;Signal;HPM_P1;HPM_P2
2022/01/19 00:01:25;;;;;;;9.70;4.85;;;;;;;1.54;88.56;103221.91;5109927;28;20098;-85
2022/01/19 00:03:56;;;;;;;11.45;4.97;;;;;;;1.46;88.47;103212.03;5113378;28;20024;-85
2022/01/19 00:06:22;;;;;;;10.63;5.05;;;;;;;1.47;88.33;103207.00;5113033;28;20027;-85
2022/01/19 00:08:48;;;;;;;10.73;5.13;;;;;;;1.41;88.69;103198.06;5112423;28;20081;-85
2022/01/19 00:11:16;;;;;;;11.70;5.30;;;;;;;1.38;88.65;103193.63;5112775;28;20027;-85
2022/01/19 00:13:41;;;;;;;9.88;4.63;;;;;;;1.30;88.36;103188.06;5113146;28;20023;-85
2022/01/19 00:16:07;;;;;;;9.85;4.55;;;;;;;1.28;88.47;103189.63;5112340;28;20383;-85
2022/01/19 00:18:38;;;;;;;9.95;4.55;;;;;;;1.26;88.65;103204.00;5112905;28;20028;-85
2022/01/19 00:21:03;;;;;;;10.38;4.90;;;;;;;1.19;88.64;103202.72;5112144;28;20024;-85
2022/01/19 00:23:29;;;;;;;10.48;4.82;;;;;;;1.22;88.57;103208.03;5112881;28;20476;-85
2022/01/19 00:26:00;;;;;;;10.95;4.85;;;;;;;1.16;88.58;103201.66;5113097;28;20432;-85
2022/01/19 00:28:25;;;;;;;9.52;4.65;;;;;;;1.13;88.18;103184.47;5103465;28;20509;-85
2022/01/19 00:30:51;;;;;;;10.85;5.13;;;;;;;1.06;88.23;103167.84;5092609;28;20059;-84
2022/01/19 00:33:19;;;;;;;10.27;5.07;;;;;;;0.99;88.48;103147.81;5092196;28;20020;-85
2022/01/19 00:35:44;;;;;;;9.35;4.53;;;;;;;1.01;88.26;103143.69;5091894;28;20048;-85
2022/01/19 00:38:10;;;;;;;10.68;4.90;;;;;;;0.96;88.61;103113.50;5092459;28;20105;-84
2022/01/19 00:40:39;;;;;;;10.20;4.60;;;;;;;0.93;88.81;103106.50;5092458;28;20020;-85
2022/01/19 00:43:05;;;;;;;11.50;5.28;;;;;;;0.89;88.44;103102.03;5091629;28;20020;-84
2022/01/19 00:45:30;;;;;;;9.48;4.57;;;;;;;0.83;88.85;103093.97;5092426;28;20384;-85
2022/01/19 00:47:59;;;;;;;9.60;4.70;;;;;;;0.74;88.51;103110.50;5092578;28;20099;-85
2022/01/19 00:50:28;;;;;;;9.77;4.65;;;;;;;0.73;88.48;103120.66;5091278;28;20106;-85
2022/01/19 00:52:53;;;;;;;9.98;4.85;;;;;;;0.72;88.68;103132.53;5092809;28;20051;-84
2022/01/19 00:55:24;;;;;;;10.32;4.97;;;;;;;0.72;88.52;103136.78;5103174;28;20063;-85
2022/01/19 00:57:50;;;;;;;10.77;5.50;;;;;;;0.69;88.38;103139.13;5112029;28;20093;-84
2022/01/19 01:00:19;;;;;;;11.30;4.93;;;;;;;0.68;88.53;103139.91;5112388;28;20464;-85
2022/01/19 01:02:45;;;;;;;11.07;5.00;;;;;;;0.65;88.36;103145.72;5112685;28;20545;-84
2022/01/19 01:05:10;;;;;;;10.65;5.10;;;;;;;0.63;88.42;103131.97;5111634;28;20027;-84
2022/01/19 01:07:38;;;;;;;9.75;5.07;;;;;;;0.61;88.55;103131.88;5112654;28;20020;-84
2022/01/19 01:10:08;;;;;;;9.75;4.70;;;;;;;0.56;88.49;103117.91;5112157;28;20024;-83
2022/01/19 01:12:51;;;;;;;9.90;5.15;;;;;;;0.54;88.68;103101.59;5112616;28;20024;-84
2022/01/19 01:15:35;;;;;;;13.10;5.45;;;;;;;0.53;88.30;103093.84;5112126;28;20019;-84
2022/01/19 01:20:36;;;;;;;11.82;5.05;;;;;;;0.49;88.28;103077.44;5112596;28;20114;-84
2022/01/19 01:23:05;;;;;;;10.45;5.15;;;;;;;0.44;88.50;103066.03;5112592;28;20034;-84
2022/01/19 01:25:31;;;;;;;12.60;4.95;;;;;;;0.45;88.68;103063.56;5099007;28;20078;-84
2022/01/19 01:27:56;;;;;;;12.05;5.40;;;;;;;0.43;88.61;103057.50;5092818;28;20028;-85
2022/01/19 01:30:22;;;;;;;9.18;4.50;;;;;;;0.34;88.21;103049.25;5095739;28;20085;-84
2022/01/19 01:32:56;;;;;;;9.35;4.50;;;;;;;0.35;88.63;103048.47;5095170;28;20032;-84
2022/01/19 01:35:31;;;;;;;12.65;5.45;;;;;;;0.29;88.40;103032.75;5095334;28;20170;-84
2022/01/19 01:37:56;;;;;;;10.90;5.05;;;;;;;0.28;88.18;103010.56;5096140;28;20024;-85
2022/01/19 01:40:25;;;;;;;12.07;5.20;;;;;;;0.21;88.47;102988.00;5094628;28;20023;-84
2022/01/19 01:42:52;;;;;;;11.00;5.20;;;;;;;0.20;88.75;102986.22;5095824;28;20020;-84
2022/01/19 01:45:23;;;;;;;8.80;4.40;;;;;;;0.14;88.41;102979.94;5094851;28;20032;-84
2022/01/19 01:47:52;;;;;;;11.07;5.38;;;;;;;0.13;88.85;102982.41;5095768;28;20081;-84
2022/01/19 01:56:02;;;;;;;13.82;5.85;;;;;;;0.10;88.70;102995.88;5115982;28;20038;-84
2022/01/19 01:58:30;;;;;;;13.73;5.63;;;;;;;0.02;88.95;102996.16;5115566;28;20028;-84
2022/01/19 02:00:56;;;;;;;11.88;5.15;;;;;;;0.05;89.12;103007.44;5115069;28;20090;-85
2022/01/19 02:03:21;;;;;;;13.63;5.80;;;;;;;0.02;88.76;103007.25;5115455;28;20026;-84
2022/01/19 02:08:46;;;;;;;11.07;4.90;;;;;;;0.01;88.51;103000.38;5115351;28;20047;-84
2022/01/19 02:16:40;;;;;;;9.93;4.80;;;;;;;-0.08;88.47;102974.28;5115450;28;20098;-84
2022/01/19 02:24:28;;;;;;;11.68;5.60;;;;;;;-0.13;88.78;102956.13;5115048;28;20032;-84
2022/01/19 02:27:05;;;;;;;12.20;5.28;;;;;;;-0.19;88.74;102948.97;5115442;28;20026;-84
2022/01/19 02:40:18;;;;;;;11.73;5.55;;;;;;;-0.33;88.37;102912.38;5114046;28;20070;-83
2022/01/19 02:50:52;;;;;;;7.82;4.38;;;;;;;-0.45;88.43;102885.22;5093904;28;20043;-84
2022/01/19 02:53:17;;;;;;;7.55;4.10;;;;;;;-0.45;88.50;102877.56;5093900;28;20024;-84
2022/01/19 02:55:44;;;;;;;9.32;4.05;;;;;;;-0.45;88.50;102878.44;5094723;28;20024;-84
2022/01/19 02:58:09;;;;;;;7.93;4.38;;;;;;;-0.47;88.57;102872.34;5094154;28;20404;-84
2022/01/19 03:08:55;;;;;;;9.30;4.60;;;;;;;-0.55;88.99;102841.25;5094324;28;20446;-84
2022/01/19 03:11:23;;;;;;;8.10;4.15;;;;;;;-0.55;88.48;102848.91;5092993;28;20024;-84
2022/01/19 03:13:48;;;;;;;8.48;4.32;;;;;;;-0.57;88.67;102837.75;5094403;28;20032;-84
2022/01/19 03:16:18;;;;;;;8.55;4.35;;;;;;;-0.59;88.44;102833.31;5114369;28;20353;-84
2022/01/19 03:18:44;;;;;;;7.30;3.90;;;;;;;-0.65;88.93;102821.94;5113702;28;20031;-84
2022/01/19 03:21:09;;;;;;;8.88;4.40;;;;;;;-0.66;88.42;102822.75;5113909;28;20015;-83
2022/01/19 03:23:41;;;;;;;9.70;4.60;;;;;;;-0.70;88.93;102825.00;5114048;28;20024;-84
2022/01/19 03:26:09;;;;;;;8.05;4.13;;;;;;;-0.81;88.32;102804.81;5113136;28;20054;-84
2022/01/19 03:28:35;;;;;;;9.05;4.30;;;;;;;-0.80;88.03;102813.31;5114103;28;20027;-84
2022/01/19 03:31:04;;;;;;;7.40;3.70;;;;;;;-0.90;88.22;102813.53;5113361;28;20020;-84
2022/01/19 03:33:32;;;;;;;8.25;4.20;;;;;;;-0.90;88.71;102806.75;5113954;28;20081;-84
2022/01/19 03:35:58;;;;;;;9.75;4.43;;;;;;;-0.88;88.78;102802.63;5113398;28;20047;-84
2022/01/19 03:38:23;;;;;;;8.85;4.20;;;;;;;-0.91;88.59;102804.13;5112595;28;20035;-84
2022/01/19 03:40:51;;;;;;;8.90;4.20;;;;;;;-0.94;88.86;102800.59;5093583;28;20081;-83
2022/01/19 03:43:17;;;;;;;9.13;4.10;;;;;;;-0.97;88.84;102808.06;5093287;28;20063;-84
2022/01/19 03:45:50;;;;;;;7.75;4.32;;;;;;;-1.03;89.32;102786.41;5092888;28;20052;-84
2022/01/19 03:48:32;;;;;;;8.40;4.50;;;;;;;-1.01;89.01;102779.69;5093404;28;20052;-83
2022/01/19 03:50:57;;;;;;;10.32;4.68;;;;;;;-0.98;89.01;102777.34;5092995;28;20051;-84
2022/01/19 03:53:22;;;;;;;9.73;4.90;;;;;;;-0.97;89.16;102777.47;5092268;28;20044;-84
2022/01/19 03:55:48;;;;;;;10.07;4.90;;;;;;;-0.95;88.58;102769.91;5092873;28;20073;-84
2022/01/19 03:58:16;;;;;;;9.70;4.75;;;;;;;-1.00;88.98;102755.97;5092903;28;20482;-83
2022/01/19 04:00:43;;;;;;;9.60;4.30;;;;;;;-0.98;88.90;102759.50;5092449;28;20024;-84
2022/01/19 04:03:12;;;;;;;10.48;4.40;;;;;;;-1.03;88.43;102753.25;5092806;28;20028;-84
2022/01/19 04:05:57;;;;;;;8.15;4.18;;;;;;;-1.05;88.98;102745.50;5092985;28;20032;-83
2022/01/19 04:08:22;;;;;;;8.32;4.47;;;;;;;-1.09;88.59;102736.78;5092458;28;20107;-84
2022/01/19 04:10:48;;;;;;;8.05;4.40;;;;;;;-1.10;89.13;102737.56;5112524;28;20106;-84
2022/01/19 04:15:50;;;;;;;12.40;5.38;;;;;;;-0.99;88.57;102739.91;5113612;28;20035;-83
2022/01/19 04:18:19;;;;;;;10.63;4.93;;;;;;;-1.05;88.84;102724.25;5112748;28;20555;-85
2022/01/19 04:20:48;;;;;;;11.90;4.90;;;;;;;-1.00;89.14;102735.59;5112493;28;20027;-84
2022/01/19 04:23:14;;;;;;;10.63;4.75;;;;;;;-1.03;88.84;102726.09;5112957;28;20589;-84
2022/01/19 04:25:46;;;;;;;11.00;4.70;;;;;;;-0.97;89.17;102745.97;5113146;28;20031;-84
2022/01/19 04:28:12;;;;;;;10.88;4.72;;;;;;;-0.97;89.23;102751.97;5112400;28;20028;-84
2022/01/19 04:30:38;;;;;;;12.07;5.18;;;;;;;-0.94;88.78;102749.59;5113147;28;20028;-84
2022/01/19 04:33:14;;;;;;;10.68;4.85;;;;;;;-0.92;88.93;102749.72;5113242;28;20080;-83
2022/01/19 04:35:45;;;;;;;12.98;5.20;;;;;;;-0.90;89.10;102750.66;5091830;28;20051;-84
2022/01/19 04:44:11;;;;;;;13.85;5.72;;;;;;;-0.87;89.07;102743.22;5092758;28;20046;-83
2022/01/19 04:47:25;;;;;;;13.25;5.65;;;;;;;-0.88;88.93;102740.59;5092487;28;20036;-84
2022/01/19 05:03:27;;;;;;;22.08;9.40;;;;;;;-0.79;90.41;102730.97;5092859;28;20043;-83
2022/01/19 05:06:02;;;;;;;20.75;8.90;;;;;;;-0.75;90.38;102727.81;5096462;28;20036;-83
2022/01/19 05:13:51;;;;;;;25.02;11.55;;;;;;;-0.59;91.26;102724.53;5096881;28;20043;-83
2022/01/19 05:16:25;;;;;;;24.38;11.32;;;;;;;-0.55;91.13;102720.50;5095324;28;20032;-83
2022/01/19 05:18:51;;;;;;;25.67;11.85;;;;;;;-0.54;91.42;102720.56;5096167;28;20028;-83
2022/01/19 05:21:18;;;;;;;24.38;10.50;;;;;;;-0.51;91.30;102725.88;5095780;28;20111;-84
2022/01/19 05:23:49;;;;;;;22.23;10.10;;;;;;;-0.45;91.18;102732.16;5095695;28;20031;-83
2022/01/19 05:26:15;;;;;;;23.63;11.27;;;;;;;-0.43;92.24;102735.66;5095907;28;20035;-84
2022/01/19 05:28:41;;;;;;;23.83;10.35;;;;;;;-0.41;91.88;102731.53;5101929;28;20012;-83
2022/01/19 05:31:09;;;;;;;21.80;9.30;;;;;;;-0.39;91.36;102735.94;5115622;28;20081;-84
2022/01/19 05:33:34;;;;;;;22.02;9.85;;;;;;;-0.38;91.88;102731.72;5116357;28;20383;-83
2022/01/19 05:36:00;;;;;;;20.98;8.50;;;;;;;-0.35;91.68;102727.69;5115879;28;20135;-83
2022/01/19 05:38:31;;;;;;;21.20;8.82;;;;;;;-0.32;91.62;102730.44;5115110;28;20019;-84
2022/01/19 05:40:56;;;;;;;20.17;7.80;;;;;;;-0.30;91.47;102717.75;5116403;28;20024;-84
2022/01/19 05:43:22;;;;;;;17.33;6.70;;;;;;;-0.24;91.48;102719.78;5115950;28;20483;-83
2022/01/19 05:45:53;;;;;;;20.13;8.15;;;;;;;-0.22;92.11;102713.09;5115343;28;20023;-83
2022/01/19 05:48:19;;;;;;;22.40;9.35;;;;;;;-0.19;91.12;102711.59;5115582;28;20110;-84
2022/01/19 05:50:45;;;;;;;22.25;10.15;;;;;;;-0.18;91.23;102708.25;5116248;28;20050;-84
2022/01/19 05:53:16;;;;;;;23.70;10.57;;;;;;;-0.16;92.09;102708.34;5115323;28;20531;-83
2022/01/19 05:55:42;;;;;;;23.67;11.00;;;;;;;-0.19;90.91;102695.44;5115725;28;20154;-84
2022/01/19 05:58:08;;;;;;;23.88;10.07;;;;;;;-0.14;91.35;102709.31;5113609;28;20102;-83
2022/01/19 06:00:37;;;;;;;21.77;9.52;;;;;;;-0.14;91.58;102703.34;5094733;28;20536;-84
2022/01/19 06:03:03;;;;;;;20.02;8.13;;;;;;;-0.16;91.35;102699.03;5095521;28;20372;-83
2022/01/19 06:05:29;;;;;;;19.05;7.95;;;;;;;-0.10;91.32;102703.63;5094115;28;20077;-83
2022/01/19 06:08:11;;;;;;;20.63;8.80;;;;;;;-0.08;91.39;102704.59;5095418;28;20099;-84
2022/01/19 06:10:42;;;;;;;22.08;10.00;;;;;;;-0.06;91.48;102702.13;5095317;28;20028;-84
2022/01/19 06:13:14;;;;;;;23.15;10.82;;;;;;;-0.04;91.67;102703.09;5094093;28;20428;-83
2022/01/19 06:15:39;;;;;;;20.75;9.40;;;;;;;-0.03;91.63;102695.50;5095181;28;20368;-84
2022/01/19 06:18:05;;;;;;;19.77;8.60;;;;;;;-0.02;91.45;102694.72;5094961;28;20031;-84
2022/01/19 06:20:33;;;;;;;18.45;7.55;;;;;;;-0.05;91.16;102688.56;5094130;28;20474;-83
2022/01/19 06:22:59;;;;;;;18.15;7.50;;;;;;;-0.02;91.65;102692.19;5095186;28;20024;-84
2022/01/19 06:25:24;;;;;;;18.70;7.57;;;;;;;0.00;91.93;102689.72;5094683;28;20032;-84
2022/01/19 06:27:49;;;;;;;17.02;6.95;;;;;;;0.01;91.97;102681.25;5094030;28;20028;-84
2022/01/19 06:30:15;;;;;;;18.65;7.00;;;;;;;0.08;91.69;102685.03;5094735;28;20020;-84
2022/01/19 06:32:40;;;;;;;18.55;7.80;;;;;;;0.09;91.78;102669.84;5090986;28;20038;-84
2022/01/19 06:35:07;;;;;;;18.80;7.97;;;;;;;0.11;91.71;102662.25;5093400;28;20028;-83
2022/01/19 06:37:33;;;;;;;18.25;7.70;;;;;;;0.09;91.86;102657.06;5094713;28;20032;-83
2022/01/19 06:39:58;;;;;;;19.20;8.13;;;;;;;0.09;92.35;102653.63;5094481;28;20031;-83
2022/01/19 06:42:24;;;;;;;18.65;7.97;;;;;;;0.11;91.91;102658.00;5093428;28;20592;-84
2022/01/19 06:44:49;;;;;;;17.73;7.25;;;;;;;0.11;91.54;102652.91;5093666;28;20064;-84
2022/01/19 06:47:14;;;;;;;17.42;7.30;;;;;;;0.14;91.82;102653.09;5094457;28;20487;-84
2022/01/19 06:49:48;;;;;;;17.15;7.20;;;;;;;0.19;91.48;102650.78;5093578;28;20024;-83
2022/01/19 06:52:13;;;;;;;17.17;6.88;;;;;;;0.14;91.64;102630.09;5107559;28;20030;-84
2022/01/19 06:54:39;;;;;;;17.30;7.25;;;;;;;0.21;91.39;102635.56;5114085;28;20035;-83
2022/01/19 06:57:09;;;;;;;16.25;6.68;;;;;;;0.20;91.23;102626.16;5113968;28;20028;-84
2022/01/19 06:59:35;;;;;;;16.80;7.28;;;;;;;0.26;91.63;102632.47;5114874;28;20026;-84
2022/01/19 07:02:00;;;;;;;15.52;6.43;;;;;;;0.30;91.52;102636.94;5114192;28;20020;-84
2022/01/19 07:04:25;;;;;;;16.13;6.43;;;;;;;0.27;91.26;102620.56;5114104;28;20084;-85
2022/01/19 07:06:53;;;;;;;17.23;6.88;;;;;;;0.32;90.91;102624.28;5114447;28;20111;-84
2022/01/19 07:09:19;;;;;;;16.88;6.72;;;;;;;0.34;91.63;102627.78;5113247;28;20024;-83
2022/01/19 07:11:44;;;;;;;16.83;7.00;;;;;;;0.34;91.68;102622.66;5114387;28;20042;-83
2022/01/19 07:14:13;;;;;;;14.63;6.38;;;;;;;0.33;91.86;102615.81;5114402;28;20103;-81
2022/01/19 07:16:39;;;;;;;15.23;6.35;;;;;;;0.38;91.87;102627.16;5113666;28;20031;-81
2022/01/19 07:19:04;;;;;;;14.05;5.85;;;;;;;0.39;91.58;102621.25;5112583;28;20076;-80
2022/01/19 07:21:29;;;;;;;14.23;6.03;;;;;;;0.41;91.78;102619.69;5114290;28;20379;-81
2022/01/19 07:23:55;;;;;;;13.98;5.78;;;;;;;0.43;91.67;102622.31;5113619;28;20049;-81
2022/01/19 07:26:21;;;;;;;15.13;6.30;;;;;;;0.46;91.92;102618.25;5113151;28;20151;-81
2022/01/19 07:28:46;;;;;;;15.82;6.53;;;;;;;0.49;91.58;102619.22;5114408;28;20020;-81
2022/01/19 07:31:11;;;;;;;14.75;5.95;;;;;;;0.49;91.52;102612.44;5111287;28;20024;-81
2022/01/19 07:33:37;;;;;;;15.65;6.60;;;;;;;0.52;91.81;102611.72;5114094;28;20023;-81
2022/01/19 07:36:02;;;;;;;17.05;6.72;;;;;;;0.53;91.88;102610.94;5113494;28;20104;-81
2022/01/19 07:38:28;;;;;;;16.83;7.32;;;;;;;0.53;92.11;102610.94;5112810;28;20031;-81
2022/01/19 07:40:54;;;;;;;16.52;7.05;;;;;;;0.56;92.28;102604.31;5113792;28;20023;-81
2022/01/19 07:43:20;;;;;;;14.57;6.10;;;;;;;0.56;91.74;102600.88;5113600;28;20027;-81
2022/01/19 07:45:45;;;;;;;17.55;7.03;;;;;;;0.57;92.41;102600.97;5113206;28;20031;-81
2022/01/19 07:48:11;;;;;;;17.52;7.07;;;;;;;0.59;92.19;102588.25;5108086;28;20142;-81
2022/01/19 07:50:38;;;;;;;17.00;7.07;;;;;;;0.60;92.57;102595.13;5093252;28;20073;-81
2022/01/19 07:53:04;;;;;;;15.57;6.90;;;;;;;0.64;92.04;102599.63;5092911;28;20421;-85
2022/01/19 07:55:29;;;;;;;15.93;6.80;;;;;;;0.68;92.29;102605.75;5092787;28;20067;-85
2022/01/19 07:57:55;;;;;;;14.45;6.35;;;;;;;0.67;92.21;102591.22;5093313;28;20060;-84
2022/01/19 08:00:20;;;;;;;14.27;6.28;;;;;;;0.74;92.42;102601.88;5092412;28;20032;-84
2022/01/19 08:02:45;;;;;;;14.85;6.18;;;;;;;0.72;92.13;102594.91;5093536;28;20024;-86
2022/01/19 08:05:11;;;;;;;12.57;5.35;;;;;;;0.79;91.92;102601.25;5092687;28;20060;-86
2022/01/19 08:07:36;;;;;;;15.02;6.25;;;;;;;0.81;92.10;102594.50;5092728;28;20027;-83
2022/01/19 08:10:06;;;;;;;17.95;7.45;;;;;;;0.85;91.77;102596.44;5092918;28;20117;-81
2022/01/19 08:12:32;;;;;;;17.13;7.20;;;;;;;0.85;92.19;102596.44;5092248;28;20027;-81
2022/01/19 08:15:00;;;;;;;18.20;8.02;;;;;;;0.85;92.46;102596.44;5093090;28;20046;-84
2022/01/19 08:17:28;;;;;;;17.77;7.80;;;;;;;0.83;92.28;102581.03;5093445;28;20024;-84
2022/01/19 08:19:55;;;;;;;16.63;7.05;;;;;;;0.90;92.34;102575.44;5088126;28;20032;-82
2022/01/19 08:22:20;;;;;;;16.98;7.28;;;;;;;0.92;92.15;102568.72;5092682;28;20032;-82
2022/01/19 08:24:48;;;;;;;16.55;7.25;;;;;;;0.93;92.31;102559.38;5093025;28;20028;-82
2022/01/19 08:27:14;;;;;;;17.80;8.05;;;;;;;0.96;92.98;102563.78;5109933;28;20115;-83
2022/01/19 08:29:39;;;;;;;17.15;7.78;;;;;;;0.97;92.61;102568.06;5113417;28;20106;-83
2022/01/19 08:32:05;;;;;;;18.40;8.02;;;;;;;0.95;92.38;102562.88;5097275;28;20024;-82
2022/01/19 08:34:32;;;;;;;16.50;7.75;;;;;;;0.99;92.16;102569.03;5091909;28;20020;-83
2022/01/19 08:36:58;;;;;;;18.17;7.87;;;;;;;0.97;92.04;102562.97;5092557;28;20413;-83
2022/01/19 08:39:25;;;;;;;16.20;7.30;;;;;;;1.02;92.15;102571.75;5095522;28;20036;-83
2022/01/19 08:41:51;;;;;;;15.48;7.00;;;;;;;1.04;92.44;102570.16;5096186;28;20391;-83
2022/01/19 08:44:17;;;;;;;15.40;6.43;;;;;;;1.05;92.50;102570.25;5096505;28;20465;-83
2022/01/19 08:46:44;;;;;;;14.82;6.45;;;;;;;1.05;91.87;102562.56;5097103;28;20058;-82
2022/01/19 08:49:10;;;;;;;16.05;7.13;;;;;;;1.09;92.11;102555.91;5093908;28;20496;-83
2022/01/19 08:51:35;;;;;;;16.43;6.90;;;;;;;1.10;92.45;102552.56;5096463;28;20024;-82
2022/01/19 08:54:13;;;;;;;16.73;7.35;;;;;;;1.10;92.90;102544.91;5096915;28;20741;-82
2022/01/19 08:56:39;;;;;;;16.30;6.57;;;;;;;1.14;92.22;102543.38;5096558;28;20031;-82
2022/01/19 08:59:04;;;;;;;15.20;6.63;;;;;;;1.10;91.92;102539.78;5107175;28;20076;-83
2022/01/19 09:01:29;;;;;;;14.07;6.30;;;;;;;1.14;92.16;102536.59;5115536;28;20024;-81
2022/01/19 09:03:55;;;;;;;17.98;7.88;;;;;;;1.18;91.82;102535.06;5099646;28;20103;-82
2022/01/19 09:06:21;;;;;;;16.65;7.10;;;;;;;1.18;92.02;102529.94;5095987;28;20032;-82
2022/01/19 09:08:46;;;;;;;16.05;7.00;;;;;;;1.22;91.96;102537.84;5095962;28;20483;-82
2022/01/19 09:11:12;;;;;;;14.45;6.57;;;;;;;1.26;92.05;102533.75;5096045;28;20108;-80
2022/01/19 09:13:38;;;;;;;18.05;8.52;;;;;;;1.25;91.91;102526.88;5096635;28;20024;-80
2022/01/19 09:16:03;;;;;;;16.52;7.50;;;;;;;1.27;92.17;102520.19;5095449;28;20452;-80
2022/01/19 09:18:29;;;;;;;18.15;8.45;;;;;;;1.38;91.76;102516.47;5096119;28;20028;-81
2022/01/19 09:20:54;;;;;;;18.02;8.63;;;;;;;1.33;91.59;102510.25;5096259;28;20035;-86
2022/01/19 09:23:19;;;;;;;18.75;9.10;;;;;;;1.31;92.40;102511.88;5096407;28;20020;-87
2022/01/19 09:25:45;;;;;;;19.25;9.07;;;;;;;1.30;92.46;102517.78;5099674;28;20100;-85
2022/01/19 09:28:10;;;;;;;17.20;8.57;;;;;;;1.30;92.86;102506.66;5096047;28;20088;-85
2022/01/19 09:30:41;;;;;;;18.95;9.32;;;;;;;1.37;92.86;102526.63;5094864;28;20435;-84
2022/01/19 09:33:09;;;;;;;19.67;9.68;;;;;;;1.38;92.44;102507.94;5095642;28;20035;-84
2022/01/19 09:38:26;;;;;;;18.60;8.95;;;;;;;1.40;92.75;102508.91;5115102;28;20036;-84
2022/01/19 09:40:52;;;;;;;19.63;8.98;;;;;;;1.41;92.69;102495.28;5116204;28;20047;-84
2022/01/19 09:43:21;;;;;;;19.50;8.68;;;;;;;1.43;92.52;102493.66;5115475;28;20054;-84
2022/01/19 09:45:50;;;;;;;17.35;7.90;;;;;;;1.44;92.46;102490.31;5115164;28;20020;-83
2022/01/19 09:48:16;;;;;;;18.70;8.98;;;;;;;1.45;92.78;102486.09;5115546;28;20177;-84
2022/01/19 09:50:42;;;;;;;17.38;8.25;;;;;;;1.45;92.62;102476.72;5114699;28;20099;-84
2022/01/19 09:53:08;;;;;;;19.15;9.60;;;;;;;1.49;92.67;102476.06;5115616;28;20024;-83
2022/01/19 09:55:35;;;;;;;18.38;8.70;;;;;;;1.51;92.58;102468.47;5096926;28;20111;-83
2022/01/19 09:58:01;;;;;;;16.65;7.72;;;;;;;1.51;92.48;102465.91;5094455;28;20024;-83
2022/01/19 10:00:26;;;;;;;15.60;7.10;;;;;;;1.56;92.63;102467.00;5095241;28;20034;-83
2022/01/19 10:03:18;;;;;;;16.30;7.20;;;;;;;1.58;92.23;102470.50;5095602;28;20070;-84
2022/01/19 10:06:08;;;;;;;14.43;6.75;;;;;;;1.60;92.53;102463.78;5094509;28;20082;-85
2022/01/19 10:08:33;;;;;;;14.77;6.93;;;;;;;1.64;92.71;102459.69;5095226;28;20059;-84
2022/01/19 10:11:14;;;;;;;15.70;7.28;;;;;;;1.65;93.01;102449.53;5095239;28;20065;-85
2022/01/19 10:19:22;;;;;;;16.80;7.68;;;;;;;1.74;92.21;102446.53;5112398;28;20400;-84
2022/01/19 10:22:08;;;;;;;16.10;7.05;;;;;;;1.78;92.35;102447.56;5113871;28;20053;-85
2022/01/19 10:24:38;;;;;;;15.77;7.22;;;;;;;1.81;92.29;102452.78;5105114;28;20031;-84
2022/01/19 10:27:22;;;;;;;14.50;6.63;;;;;;;1.84;92.72;102447.81;5102382;28;20024;-85
2022/01/19 10:29:49;;;;;;;14.75;6.65;;;;;;;1.85;92.59;102440.22;5115210;28;20034;-84
2022/01/19 10:32:15;;;;;;;16.52;7.43;;;;;;;1.88;92.94;102443.72;5114399;28;20028;-84
2022/01/19 10:34:40;;;;;;;15.53;7.70;;;;;;;1.91;92.75;102433.63;5114294;28;20410;-84
2022/01/19 10:37:06;;;;;;;18.77;8.98;;;;;;;1.95;92.31;102415.91;5114512;28;20273;-85
2022/01/19 10:39:46;;;;;;;16.98;7.90;;;;;;;1.98;92.72;102408.38;5114185;28;20039;-83
2022/01/19 10:42:20;;;;;;;17.88;8.55;;;;;;;2.03;92.48;102400.91;5114392;28;20024;-84
2022/01/19 10:45:00;;;;;;;17.80;9.00;;;;;;;2.07;92.34;102401.91;5101222;28;20389;-86
2022/01/19 10:47:50;;;;;;;17.45;8.10;;;;;;;2.12;92.69;102413.25;5093862;28;20444;-86
2022/01/19 10:50:30;;;;;;;15.95;7.78;;;;;;;2.14;92.23;102417.63;5093992;28;20480;-85
2022/01/19 10:52:58;;;;;;;17.45;8.07;;;;;;;2.18;92.27;102410.09;5094747;28;20350;-85
2022/01/19 10:55:41;;;;;;;17.35;8.60;;;;;;;2.20;92.33;102408.44;5109253;28;20077;-85
2022/01/19 10:58:15;;;;;;;17.17;7.90;;;;;;;2.21;92.55;102411.09;5113394;28;20028;-84
2022/01/19 11:00:49;;;;;;;18.70;8.65;;;;;;;2.24;92.77;102411.25;5093122;28;20028;-84
2022/01/19 11:03:26;;;;;;;17.40;7.68;;;;;;;2.26;92.74;102395.91;5093524;28;20019;-85
2022/01/19 11:05:54;;;;;;;18.27;8.18;;;;;;;2.26;92.24;102391.66;5094341;28;20445;-84
2022/01/19 11:08:32;;;;;;;18.20;8.70;;;;;;;2.29;92.62;102385.81;5092795;28;20012;-84
2022/01/19 11:11:01;;;;;;;18.58;8.88;;;;;;;2.31;92.39;102386.72;5094318;28;20066;-84
2022/01/19 11:13:30;;;;;;;18.30;8.57;;;;;;;2.34;92.71;102383.47;5093972;28;20027;-85
2022/01/19 11:15:57;;;;;;;18.35;8.88;;;;;;;2.35;92.32;102372.41;5093219;28;20020;-85
2022/01/19 11:18:25;;;;;;;19.10;9.73;;;;;;;2.37;92.42;102370.75;5094659;28;20020;-84
2022/01/19 11:20:54;;;;;;;21.13;11.02;;;;;;;2.52;91.28;102363.72;5114368;28;20028;-87
2022/01/19 11:23:42;;;;;;;21.30;11.32;;;;;;;2.42;91.82;102361.59;5113520;28;20031;-85
2022/01/19 11:26:20;;;;;;;20.17;10.13;;;;;;;2.41;92.03;102353.03;5093522;28;20080;-84
2022/01/19 11:28:49;;;;;;;21.77;11.43;;;;;;;2.45;92.05;102348.91;5092602;28;20024;-84
2022/01/19 11:31:21;;;;;;;22.33;11.68;;;;;;;2.43;92.21;102342.84;5092388;28;20455;-84
2022/01/19 11:33:56;;;;;;;21.52;11.38;;;;;;;2.42;92.24;102335.97;5093728;28;20434;-84
2022/01/19 11:36:42;;;;;;;22.52;11.98;;;;;;;2.47;91.97;102331.94;5091949;28;20808;-84
2022/01/19 11:39:23;;;;;;;21.80;11.77;;;;;;;2.44;91.99;102332.66;5093037;28;20048;-85
2022/01/19 11:41:57;;;;;;;20.45;10.40;;;;;;;2.46;92.27;102330.16;5093596;28;20058;-84
2022/01/19 11:44:28;;;;;;;20.35;10.25;;;;;;;2.48;91.94;102318.28;5091922;28;20035;-84
2022/01/19 11:46:55;;;;;;;20.85;10.55;;;;;;;2.49;92.23;102324.28;5093834;28;20047;-84
2022/01/19 11:49:43;;;;;;;20.95;10.73;;;;;;;2.51;92.26;102309.84;5093178;28;20028;-85
2022/01/19 11:52:08;;;;;;;21.60;10.65;;;;;;;2.52;92.16;102298.78;5093371;28;20040;-84
2022/01/19 11:54:34;;;;;;;19.77;9.77;;;;;;;2.51;91.98;102295.34;5092509;28;20039;-84
2022/01/19 11:57:00;;;;;;;19.13;9.00;;;;;;;2.57;91.86;102303.31;5093251;28;20024;-84
2022/01/19 11:59:34;;;;;;;21.63;10.85;;;;;;;2.56;91.68;102287.84;5092340;28;20032;-85
2022/01/19 12:02:21;;;;;;;19.45;9.57;;;;;;;2.58;91.76;102291.34;5093343;28;20024;-84
2022/01/19 12:05:15;;;;;;;21.60;9.98;;;;;;;2.58;91.90;102275.97;5092449;28;20032;-85
2022/01/19 12:07:44;;;;;;;21.45;10.65;;;;;;;2.59;91.54;102273.44;5091072;28;20357;-84
2022/01/19 12:10:42;;;;;;;21.02;11.00;;;;;;;2.60;91.96;102282.03;5092946;28;20032;-84
2022/01/19 12:13:35;;;;;;;20.67;10.98;;;;;;;2.61;91.74;102270.97;5091512;28;20502;-83
2022/01/19 12:16:09;;;;;;;21.15;10.63;;;;;;;2.63;91.58;102264.22;5092911;28;20040;-83
2022/01/19 12:18:49;;;;;;;23.30;12.35;;;;;;;2.67;91.44;102254.97;5094897;28;20020;-85
2022/01/19 12:21:34;;;;;;;22.65;12.10;;;;;;;2.67;91.53;102248.13;5102476;28;20472;-85
2022/01/19 12:24:13;;;;;;;22.45;12.10;;;;;;;2.76;91.31;102235.66;5110503;28;20031;-84
2022/01/19 12:27:08;;;;;;;22.23;12.15;;;;;;;2.76;91.85;102227.13;5105067;28;20056;-84
2022/01/19 12:29:33;;;;;;;24.27;13.48;;;;;;;2.82;91.55;102219.66;5092032;28;20469;-84
2022/01/19 12:32:00;;;;;;;26.05;14.70;;;;;;;2.85;91.64;102218.94;5091994;28;20074;-85
2022/01/19 12:34:26;;;;;;;23.98;13.60;;;;;;;2.87;91.25;102213.03;5091579;28;20078;-87
2022/01/19 12:36:58;;;;;;;25.38;14.20;;;;;;;2.91;91.96;102222.59;5085070;28;20046;-87
2022/01/19 12:39:26;;;;;;;25.50;14.60;;;;;;;2.94;91.59;102225.25;5092021;28;20035;-86
2022/01/19 12:41:59;;;;;;;28.00;16.75;;;;;;;2.98;90.89;102212.56;5084849;28;20036;-87
2022/01/19 12:44:55;;;;;;;29.33;18.08;;;;;;;2.99;90.95;102211.75;5072347;28;20054;-87
2022/01/19 12:47:30;;;;;;;28.58;16.17;;;;;;;3.00;91.05;102204.09;5072196;28;20158;-87
2022/01/19 12:50:10;;;;;;;29.58;17.80;;;;;;;3.03;90.81;102196.53;5074195;28;20111;-88
2022/01/19 12:52:43;;;;;;;27.45;15.80;;;;;;;3.02;91.02;102183.66;5075115;28;20036;-88
2022/01/19 12:55:13;;;;;;;29.40;16.80;;;;;;;3.05;91.08;102184.66;5071909;28;20115;-85
2022/01/19 12:57:39;;;;;;;27.25;16.02;;;;;;;3.12;91.09;102185.75;5072900;28;20111;-86